Terminal Aerodrome Forecast
Issued by NWS

Home | Current Version | Previous Version | Text Only | Print | Product List | Glossary On
Versions: 1 2 3 4 5 6 7 8 9 10 11 12 13 14 15 16 17 18 19 20 21 22 23 24 25 26
000
FTUS44 KCRP 252109 AAA
TAFALI
TAF AMD
KALI 252109Z 2521/2618 VRB05KT P6SM FEW035
      TEMPO 2521/2523 BKN028
     FM260300 14005KT 5SM BR BKN010
     FM260700 15006KT 4SM BR OVC008
     FM261500 15005KT P6SM BKN015=

USA.gov is the U.S. government's official web portal to all federal, state and local government web resources and services.